sensor_id;sensor_type;location;lat;lon;timestamp;P1;durP1;ratioP1;P2;durP2;ratioP2
4466;SDS011;2246;42.664;23.278;2023-06-24T00:02:08;21.00;;;11.50;;
4466;SDS011;2246;42.664;23.278;2023-06-24T00:04:34;22.73;;;12.10;;
4466;SDS011;2246;42.664;23.278;2023-06-24T00:07:00;18.83;;;11.50;;
4466;SDS011;2246;42.664;23.278;2023-06-24T00:09:27;17.92;;;11.60;;
4466;SDS011;2246;42.664;23.278;2023-06-24T00:11:56;18.23;;;11.45;;
4466;SDS011;2246;42.664;23.278;2023-06-24T00:14:24;19.90;;;11.38;;
4466;SDS011;2246;42.664;23.278;2023-06-24T00:16:51;18.60;;;11.52;;
4466;SDS011;2246;42.664;23.278;2023-06-24T00:19:21;19.73;;;12.65;;
4466;SDS011;2246;42.664;23.278;2023-06-24T00:21:48;17.65;;;11.88;;
4466;SDS011;2246;42.664;23.278;2023-06-24T00:24:16;25.50;;;12.88;;
4466;SDS011;2246;42.664;23.278;2023-06-24T00:26:42;18.05;;;11.73;;
4466;SDS011;2246;42.664;23.278;2023-06-24T00:29:08;25.95;;;12.90;;
4466;SDS011;2246;42.664;23.278;2023-06-24T00:31:34;17.70;;;11.98;;
4466;SDS011;2246;42.664;23.278;2023-06-24T00:34:00;18.38;;;11.93;;
4466;SDS011;2246;42.664;23.278;2023-06-24T00:36:26;19.30;;;12.27;;
4466;SDS011;2246;42.664;23.278;2023-06-24T00:38:52;18.65;;;13.07;;
4466;SDS011;2246;42.664;23.278;2023-06-24T00:41:18;17.30;;;12.38;;
4466;SDS011;2246;42.664;23.278;2023-06-24T00:43:45;17.42;;;11.90;;
4466;SDS011;2246;42.664;23.278;2023-06-24T00:46:11;19.02;;;12.48;;
4466;SDS011;2246;42.664;23.278;2023-06-24T00:48:38;18.33;;;12.35;;
4466;SDS011;2246;42.664;23.278;2023-06-24T00:51:05;19.42;;;12.48;;
4466;SDS011;2246;42.664;23.278;2023-06-24T00:53:31;20.65;;;12.32;;
4466;SDS011;2246;42.664;23.278;2023-06-24T00:55:57;20.35;;;12.68;;
4466;SDS011;2246;42.664;23.278;2023-06-24T00:58:28;17.65;;;12.18;;
4466;SDS011;2246;42.664;23.278;2023-06-24T01:00:55;19.10;;;12.10;;
4466;SDS011;2246;42.664;23.278;2023-06-24T01:05:50;19.30;;;11.98;;
4466;SDS011;2246;42.664;23.278;2023-06-24T01:08:17;17.80;;;12.13;;
4466;SDS011;2246;42.664;23.278;2023-06-24T01:10:44;19.95;;;12.88;;
4466;SDS011;2246;42.664;23.278;2023-06-24T01:13:10;20.25;;;13.02;;
4466;SDS011;2246;42.664;23.278;2023-06-24T01:15:36;18.52;;;11.95;;
4466;SDS011;2246;42.664;23.278;2023-06-24T01:18:13;22.08;;;12.48;;
4466;SDS011;2246;42.664;23.278;2023-06-24T01:25:47;20.40;;;13.60;;
4466;SDS011;2246;42.664;23.278;2023-06-24T01:33:48;25.30;;;13.57;;
4466;SDS011;2246;42.664;23.278;2023-06-24T01:36:17;17.50;;;12.65;;
4466;SDS011;2246;42.664;23.278;2023-06-24T01:38:47;21.52;;;13.68;;
4466;SDS011;2246;42.664;23.278;2023-06-24T01:41:15;20.52;;;13.45;;
4466;SDS011;2246;42.664;23.278;2023-06-24T01:43:44;23.33;;;12.80;;
4466;SDS011;2246;42.664;23.278;2023-06-24T01:46:10;19.90;;;12.35;;
4466;SDS011;2246;42.664;23.278;2023-06-24T01:48:38;19.08;;;13.05;;
4466;SDS011;2246;42.664;23.278;2023-06-24T01:51:13;21.63;;;13.13;;
4466;SDS011;2246;42.664;23.278;2023-06-24T01:53:41;18.70;;;12.77;;
4466;SDS011;2246;42.664;23.278;2023-06-24T01:56:09;17.67;;;12.43;;
4466;SDS011;2246;42.664;23.278;2023-06-24T01:58:36;20.85;;;12.40;;
4466;SDS011;2246;42.664;23.278;2023-06-24T02:01:02;20.55;;;13.65;;
4466;SDS011;2246;42.664;23.278;2023-06-24T02:03:29;19.63;;;13.32;;
4466;SDS011;2246;42.664;23.278;2023-06-24T02:05:56;20.03;;;13.13;;
4466;SDS011;2246;42.664;23.278;2023-06-24T02:08:23;20.35;;;12.88;;
4466;SDS011;2246;42.664;23.278;2023-06-24T02:10:50;19.65;;;12.50;;
4466;SDS011;2246;42.664;23.278;2023-06-24T02:13:16;19.23;;;13.03;;
4466;SDS011;2246;42.664;23.278;2023-06-24T02:15:43;18.23;;;12.02;;
4466;SDS011;2246;42.664;23.278;2023-06-24T02:18:09;17.10;;;12.30;;
4466;SDS011;2246;42.664;23.278;2023-06-24T02:20:36;23.55;;;13.63;;
4466;SDS011;2246;42.664;23.278;2023-06-24T02:23:04;19.30;;;12.88;;
4466;SDS011;2246;42.664;23.278;2023-06-24T02:25:30;23.75;;;12.85;;
4466;SDS011;2246;42.664;23.278;2023-06-24T02:27:57;20.98;;;13.82;;
4466;SDS011;2246;42.664;23.278;2023-06-24T02:30:23;25.33;;;13.38;;
4466;SDS011;2246;42.664;23.278;2023-06-24T02:32:49;19.92;;;13.43;;
4466;SDS011;2246;42.664;23.278;2023-06-24T02:35:16;18.25;;;12.07;;
4466;SDS011;2246;42.664;23.278;2023-06-24T02:37:42;19.35;;;12.57;;
4466;SDS011;2246;42.664;23.278;2023-06-24T02:40:08;19.10;;;12.60;;
4466;SDS011;2246;42.664;23.278;2023-06-24T02:42:35;31.13;;;17.95;;
4466;SDS011;2246;42.664;23.278;2023-06-24T02:45:02;25.73;;;16.52;;
4466;SDS011;2246;42.664;23.278;2023-06-24T02:49:54;17.83;;;13.00;;
4466;SDS011;2246;42.664;23.278;2023-06-24T02:52:22;31.67;;;19.08;;
4466;SDS011;2246;42.664;23.278;2023-06-24T02:54:49;21.42;;;14.93;;
4466;SDS011;2246;42.664;23.278;2023-06-24T02:57:15;18.23;;;12.00;;
4466;SDS011;2246;42.664;23.278;2023-06-24T02:59:41;19.90;;;13.70;;
4466;SDS011;2246;42.664;23.278;2023-06-24T03:02:07;26.35;;;15.07;;
4466;SDS011;2246;42.664;23.278;2023-06-24T03:04:33;24.88;;;16.02;;
4466;SDS011;2246;42.664;23.278;2023-06-24T03:07:00;25.40;;;16.17;;
4466;SDS011;2246;42.664;23.278;2023-06-24T03:09:27;20.73;;;13.90;;
4466;SDS011;2246;42.664;23.278;2023-06-24T03:11:53;23.92;;;16.40;;
4466;SDS011;2246;42.664;23.278;2023-06-24T03:14:19;26.08;;;15.68;;
4466;SDS011;2246;42.664;23.278;2023-06-24T03:16:45;21.90;;;13.52;;
4466;SDS011;2246;42.664;23.278;2023-06-24T03:19:11;22.65;;;13.73;;
4466;SDS011;2246;42.664;23.278;2023-06-24T03:21:37;40.63;;;24.45;;
4466;SDS011;2246;42.664;23.278;2023-06-24T03:24:03;34.03;;;19.85;;
4466;SDS011;2246;42.664;23.278;2023-06-24T03:26:37;22.05;;;13.85;;
4466;SDS011;2246;42.664;23.278;2023-06-24T03:29:03;24.77;;;15.43;;
4466;SDS011;2246;42.664;23.278;2023-06-24T03:31:29;21.05;;;14.23;;
4466;SDS011;2246;42.664;23.278;2023-06-24T03:33:55;22.08;;;13.50;;
4466;SDS011;2246;42.664;23.278;2023-06-24T03:36:21;24.88;;;14.85;;
4466;SDS011;2246;42.664;23.278;2023-06-24T03:38:49;25.63;;;13.57;;
4466;SDS011;2246;42.664;23.278;2023-06-24T03:41:15;33.33;;;19.60;;
4466;SDS011;2246;42.664;23.278;2023-06-24T03:43:41;37.95;;;22.77;;
4466;SDS011;2246;42.664;23.278;2023-06-24T03:46:07;36.75;;;20.83;;
4466;SDS011;2246;42.664;23.278;2023-06-24T03:48:33;20.13;;;13.55;;
4466;SDS011;2246;42.664;23.278;2023-06-24T03:50:59;23.73;;;13.35;;
4466;SDS011;2246;42.664;23.278;2023-06-24T03:53:25;21.05;;;13.18;;
4466;SDS011;2246;42.664;23.278;2023-06-24T03:55:51;25.25;;;14.18;;
4466;SDS011;2246;42.664;23.278;2023-06-24T03:58:17;24.00;;;15.07;;
4466;SDS011;2246;42.664;23.278;2023-06-24T04:00:45;21.45;;;14.70;;
4466;SDS011;2246;42.664;23.278;2023-06-24T04:03:14;22.70;;;14.07;;
4466;SDS011;2246;42.664;23.278;2023-06-24T04:05:41;25.23;;;15.40;;
4466;SDS011;2246;42.664;23.278;2023-06-24T04:08:07;23.75;;;15.23;;
4466;SDS011;2246;42.664;23.278;2023-06-24T04:10:33;20.50;;;13.68;;
4466;SDS011;2246;42.664;23.278;2023-06-24T04:12:59;20.00;;;13.93;;
4466;SDS011;2246;42.664;23.278;2023-06-24T04:15:25;22.73;;;14.23;;
4466;SDS011;2246;42.664;23.278;2023-06-24T04:17:51;22.20;;;14.25;;
4466;SDS011;2246;42.664;23.278;2023-06-24T04:20:17;19.63;;;14.73;;
4466;SDS011;2246;42.664;23.278;2023-06-24T04:22:43;19.73;;;13.05;;
4466;SDS011;2246;42.664;23.278;2023-06-24T04:25:09;20.48;;;13.82;;
4466;SDS011;2246;42.664;23.278;2023-06-24T04:27:35;22.67;;;12.93;;
4466;SDS011;2246;42.664;23.278;2023-06-24T04:30:01;22.55;;;13.98;;
4466;SDS011;2246;42.664;23.278;2023-06-24T04:32:28;21.50;;;13.35;;
4466;SDS011;2246;42.664;23.278;2023-06-24T04:34:54;20.63;;;13.35;;
4466;SDS011;2246;42.664;23.278;2023-06-24T04:37:20;20.35;;;14.00;;
4466;SDS011;2246;42.664;23.278;2023-06-24T04:39:47;20.13;;;14.07;;
4466;SDS011;2246;42.664;23.278;2023-06-24T04:42:14;21.77;;;14.13;;
4466;SDS011;2246;42.664;23.278;2023-06-24T04:44:40;18.10;;;13.57;;
4466;SDS011;2246;42.664;23.278;2023-06-24T04:47:06;16.92;;;13.02;;
4466;SDS011;2246;42.664;23.278;2023-06-24T04:49:32;20.58;;;14.15;;
4466;SDS011;2246;42.664;23.278;2023-06-24T04:52:01;23.63;;;14.57;;
4466;SDS011;2246;42.664;23.278;2023-06-24T04:54:27;18.75;;;13.55;;
4466;SDS011;2246;42.664;23.278;2023-06-24T04:56:53;21.40;;;13.55;;
4466;SDS011;2246;42.664;23.278;2023-06-24T04:59:21;19.97;;;13.60;;
4466;SDS011;2246;42.664;23.278;2023-06-24T05:01:47;21.70;;;13.18;;
4466;SDS011;2246;42.664;23.278;2023-06-24T05:04:13;17.20;;;13.35;;
4466;SDS011;2246;42.664;23.278;2023-06-24T05:06:39;15.00;;;12.23;;
4466;SDS011;2246;42.664;23.278;2023-06-24T05:09:05;16.08;;;12.60;;
4466;SDS011;2246;42.664;23.278;2023-06-24T05:11:31;20.27;;;12.90;;
4466;SDS011;2246;42.664;23.278;2023-06-24T05:13:57;19.70;;;14.38;;
4466;SDS011;2246;42.664;23.278;2023-06-24T05:16:23;16.08;;;11.43;;
4466;SDS011;2246;42.664;23.278;2023-06-24T05:18:49;16.45;;;11.82;;
4466;SDS011;2246;42.664;23.278;2023-06-24T05:21:15;22.90;;;11.25;;
4466;SDS011;2246;42.664;23.278;2023-06-24T05:23:41;15.20;;;11.50;;
4466;SDS011;2246;42.664;23.278;2023-06-24T05:26:07;15.10;;;11.07;;
4466;SDS011;2246;42.664;23.278;2023-06-24T05:28:33;17.70;;;10.98;;
4466;SDS011;2246;42.664;23.278;2023-06-24T05:30:59;12.70;;;10.52;;
4466;SDS011;2246;42.664;23.278;2023-06-24T05:33:25;17.23;;;12.07;;
4466;SDS011;2246;42.664;23.278;2023-06-24T05:35:51;19.35;;;12.43;;
4466;SDS011;2246;42.664;23.278;2023-06-24T05:38:17;22.65;;;11.35;;
4466;SDS011;2246;42.664;23.278;2023-06-24T05:40:43;19.05;;;11.95;;
4466;SDS011;2246;42.664;23.278;2023-06-24T05:43:09;18.67;;;11.70;;
4466;SDS011;2246;42.664;23.278;2023-06-24T05:45:36;17.67;;;10.98;;
4466;SDS011;2246;42.664;23.278;2023-06-24T05:48:02;15.82;;;10.05;;
4466;SDS011;2246;42.664;23.278;2023-06-24T05:50:28;14.40;;;10.90;;
4466;SDS011;2246;42.664;23.278;2023-06-24T05:52:54;16.25;;;10.57;;
4466;SDS011;2246;42.664;23.278;2023-06-24T05:55:20;20.90;;;11.75;;
4466;SDS011;2246;42.664;23.278;2023-06-24T05:57:46;24.42;;;11.32;;
4466;SDS011;2246;42.664;23.278;2023-06-24T06:00:13;13.60;;;10.55;;
4466;SDS011;2246;42.664;23.278;2023-06-24T06:02:39;17.50;;;10.95;;
4466;SDS011;2246;42.664;23.278;2023-06-24T06:05:05;18.52;;;11.85;;
4466;SDS011;2246;42.664;23.278;2023-06-24T06:07:31;16.70;;;10.90;;
4466;SDS011;2246;42.664;23.278;2023-06-24T06:09:57;13.88;;;10.75;;
4466;SDS011;2246;42.664;23.278;2023-06-24T06:12:23;20.50;;;11.57;;
4466;SDS011;2246;42.664;23.278;2023-06-24T06:14:49;14.48;;;10.98;;
4466;SDS011;2246;42.664;23.278;2023-06-24T06:17:15;13.57;;;10.18;;
4466;SDS011;2246;42.664;23.278;2023-06-24T06:19:41;12.95;;;10.23;;
4466;SDS011;2246;42.664;23.278;2023-06-24T06:22:07;20.27;;;11.18;;
4466;SDS011;2246;42.664;23.278;2023-06-24T06:24:33;15.87;;;10.50;;
4466;SDS011;2246;42.664;23.278;2023-06-24T06:26:59;12.20;;;9.25;;
4466;SDS011;2246;42.664;23.278;2023-06-24T06:29:25;11.75;;;9.75;;
4466;SDS011;2246;42.664;23.278;2023-06-24T06:31:51;13.45;;;9.85;;
4466;SDS011;2246;42.664;23.278;2023-06-24T06:34:20;12.65;;;9.60;;
4466;SDS011;2246;42.664;23.278;2023-06-24T06:36:46;13.10;;;9.88;;
4466;SDS011;2246;42.664;23.278;2023-06-24T06:39:12;12.73;;;10.25;;
4466;SDS011;2246;42.664;23.278;2023-06-24T06:41:38;18.27;;;10.77;;
4466;SDS011;2246;42.664;23.278;2023-06-24T06:44:04;12.73;;;10.00;;
4466;SDS011;2246;42.664;23.278;2023-06-24T06:46:30;13.25;;;10.27;;
4466;SDS011;2246;42.664;23.278;2023-06-24T06:48:56;13.80;;;9.40;;
4466;SDS011;2246;42.664;23.278;2023-06-24T06:51:22;13.52;;;10.18;;
4466;SDS011;2246;42.664;23.278;2023-06-24T06:53:49;13.77;;;10.52;;
4466;SDS011;2246;42.664;23.278;2023-06-24T06:56:18;16.52;;;11.13;;
4466;SDS011;2246;42.664;23.278;2023-06-24T06:58:44;16.13;;;10.45;;
4466;SDS011;2246;42.664;23.278;2023-06-24T07:01:10;16.80;;;10.70;;
4466;SDS011;2246;42.664;23.278;2023-06-24T07:03:36;12.82;;;10.25;;
4466;SDS011;2246;42.664;23.278;2023-06-24T07:06:02;13.65;;;9.77;;
4466;SDS011;2246;42.664;23.278;2023-06-24T07:08:28;15.80;;;10.80;;
4466;SDS011;2246;42.664;23.278;2023-06-24T07:10:54;14.20;;;10.85;;
4466;SDS011;2246;42.664;23.278;2023-06-24T07:13:20;14.85;;;11.10;;
4466;SDS011;2246;42.664;23.278;2023-06-24T07:15:46;17.88;;;11.02;;
4466;SDS011;2246;42.664;23.278;2023-06-24T07:18:12;15.25;;;10.45;;
4466;SDS011;2246;42.664;23.278;2023-06-24T07:20:38;15.18;;;11.13;;
4466;SDS011;2246;42.664;23.278;2023-06-24T07:23:04;18.33;;;11.43;;
4466;SDS011;2246;42.664;23.278;2023-06-24T07:25:30;17.02;;;11.38;;
4466;SDS011;2246;42.664;23.278;2023-06-24T07:27:56;20.88;;;11.02;;
4466;SDS011;2246;42.664;23.278;2023-06-24T07:30:22;18.73;;;11.27;;
4466;SDS011;2246;42.664;23.278;2023-06-24T07:32:48;17.30;;;10.48;;
4466;SDS011;2246;42.664;23.278;2023-06-24T07:35:14;13.05;;;10.15;;
4466;SDS011;2246;42.664;23.278;2023-06-24T07:37:41;18.00;;;11.33;;
4466;SDS011;2246;42.664;23.278;2023-06-24T07:40:07;15.85;;;10.90;;
4466;SDS011;2246;42.664;23.278;2023-06-24T07:42:34;14.57;;;10.77;;
4466;SDS011;2246;42.664;23.278;2023-06-24T07:45:00;18.45;;;12.88;;
4466;SDS011;2246;42.664;23.278;2023-06-24T07:47:26;16.38;;;12.15;;
4466;SDS011;2246;42.664;23.278;2023-06-24T07:49:52;16.33;;;11.73;;
4466;SDS011;2246;42.664;23.278;2023-06-24T07:52:18;19.15;;;12.40;;
4466;SDS011;2246;42.664;23.278;2023-06-24T07:54:44;18.92;;;11.23;;
4466;SDS011;2246;42.664;23.278;2023-06-24T07:57:10;16.35;;;11.70;;
4466;SDS011;2246;42.664;23.278;2023-06-24T07:59:36;13.70;;;11.27;;
4466;SDS011;2246;42.664;23.278;2023-06-24T08:02:02;15.32;;;11.45;;
4466;SDS011;2246;42.664;23.278;2023-06-24T08:04:28;16.70;;;11.15;;
4466;SDS011;2246;42.664;23.278;2023-06-24T08:06:54;16.38;;;11.57;;
4466;SDS011;2246;42.664;23.278;2023-06-24T08:09:20;17.80;;;11.30;;
4466;SDS011;2246;42.664;23.278;2023-06-24T08:11:47;17.40;;;10.32;;
4466;SDS011;2246;42.664;23.278;2023-06-24T08:14:13;19.40;;;10.88;;
4466;SDS011;2246;42.664;23.278;2023-06-24T08:16:39;16.92;;;10.65;;
4466;SDS011;2246;42.664;23.278;2023-06-24T08:19:05;17.83;;;10.88;;
4466;SDS011;2246;42.664;23.278;2023-06-24T08:21:31;22.60;;;11.43;;
4466;SDS011;2246;42.664;23.278;2023-06-24T08:23:59;13.50;;;10.23;;
4466;SDS011;2246;42.664;23.278;2023-06-24T08:26:25;13.93;;;10.93;;
4466;SDS011;2246;42.664;23.278;2023-06-24T08:28:51;14.00;;;11.35;;
4466;SDS011;2246;42.664;23.278;2023-06-24T08:31:17;15.13;;;10.88;;
4466;SDS011;2246;42.664;23.278;2023-06-24T08:33:44;12.73;;;10.27;;
4466;SDS011;2246;42.664;23.278;2023-06-24T08:36:10;16.60;;;10.57;;
4466;SDS011;2246;42.664;23.278;2023-06-24T08:38:36;14.73;;;10.98;;
4466;SDS011;2246;42.664;23.278;2023-06-24T08:41:02;14.75;;;11.90;;
4466;SDS011;2246;42.664;23.278;2023-06-24T08:43:28;21.27;;;11.70;;
4466;SDS011;2246;42.664;23.278;2023-06-24T08:45:54;13.93;;;10.98;;
4466;SDS011;2246;42.664;23.278;2023-06-24T08:48:20;15.13;;;11.45;;
4466;SDS011;2246;42.664;23.278;2023-06-24T08:50:49;15.48;;;11.15;;
4466;SDS011;2246;42.664;23.278;2023-06-24T08:53:16;14.63;;;10.98;;
4466;SDS011;2246;42.664;23.278;2023-06-24T08:55:44;17.13;;;11.25;;
4466;SDS011;2246;42.664;23.278;2023-06-24T08:58:11;15.77;;;12.07;;
4466;SDS011;2246;42.664;23.278;2023-06-24T09:00:37;16.85;;;10.80;;
4466;SDS011;2246;42.664;23.278;2023-06-24T09:03:03;19.00;;;11.43;;
4466;SDS011;2246;42.664;23.278;2023-06-24T09:05:29;16.08;;;10.98;;
4466;SDS011;2246;42.664;23.278;2023-06-24T09:07:55;15.80;;;11.50;;
4466;SDS011;2246;42.664;23.278;2023-06-24T09:10:34;15.30;;;10.90;;
4466;SDS011;2246;42.664;23.278;2023-06-24T09:13:01;16.65;;;10.65;;
4466;SDS011;2246;42.664;23.278;2023-06-24T09:15:37;20.90;;;10.63;;
4466;SDS011;2246;42.664;23.278;2023-06-24T09:18:04;20.88;;;11.52;;
4466;SDS011;2246;42.664;23.278;2023-06-24T09:20:31;14.95;;;10.73;;
4466;SDS011;2246;42.664;23.278;2023-06-24T09:23:01;15.00;;;10.98;;
4466;SDS011;2246;42.664;23.278;2023-06-24T09:25:27;14.32;;;10.80;;
4466;SDS011;2246;42.664;23.278;2023-06-24T09:27:53;12.55;;;10.23;;
4466;SDS011;2246;42.664;23.278;2023-06-24T09:32:47;12.40;;;10.48;;
4466;SDS011;2246;42.664;23.278;2023-06-24T09:35:13;13.85;;;10.38;;
4466;SDS011;2246;42.664;23.278;2023-06-24T09:37:39;16.88;;;9.70;;
4466;SDS011;2246;42.664;23.278;2023-06-24T09:40:06;15.70;;;10.43;;
4466;SDS011;2246;42.664;23.278;2023-06-24T09:42:34;15.75;;;11.32;;
4466;SDS011;2246;42.664;23.278;2023-06-24T09:45:03;13.80;;;10.55;;
4466;SDS011;2246;42.664;23.278;2023-06-24T09:47:30;19.83;;;9.88;;
4466;SDS011;2246;42.664;23.278;2023-06-24T09:49:56;14.63;;;10.23;;
4466;SDS011;2246;42.664;23.278;2023-06-24T09:52:22;16.95;;;10.45;;
4466;SDS011;2246;42.664;23.278;2023-06-24T09:54:50;19.33;;;10.98;;
4466;SDS011;2246;42.664;23.278;2023-06-24T09:57:18;13.45;;;9.23;;
4466;SDS011;2246;42.664;23.278;2023-06-24T09:59:46;12.15;;;10.23;;
4466;SDS011;2246;42.664;23.278;2023-06-24T10:02:14;18.40;;;9.98;;
4466;SDS011;2246;42.664;23.278;2023-06-24T10:04:40;14.30;;;10.15;;
4466;SDS011;2246;42.664;23.278;2023-06-24T10:07:07;41.92;;;25.77;;
4466;SDS011;2246;42.664;23.278;2023-06-24T10:09:33;21.90;;;15.35;;
4466;SDS011;2246;42.664;23.278;2023-06-24T10:11:59;18.52;;;10.13;;
4466;SDS011;2246;42.664;23.278;2023-06-24T10:14:26;17.00;;;9.20;;
4466;SDS011;2246;42.664;23.278;2023-06-24T10:17:00;14.40;;;9.40;;
4466;SDS011;2246;42.664;23.278;2023-06-24T10:19:26;16.23;;;9.05;;
4466;SDS011;2246;42.664;23.278;2023-06-24T10:21:59;13.65;;;9.18;;
4466;SDS011;2246;42.664;23.278;2023-06-24T10:24:31;16.38;;;10.10;;
4466;SDS011;2246;42.664;23.278;2023-06-24T10:27:04;17.08;;;9.70;;
4466;SDS011;2246;42.664;23.278;2023-06-24T10:29:34;10.07;;;8.68;;
4466;SDS011;2246;42.664;23.278;2023-06-24T10:32:04;13.85;;;9.63;;
4466;SDS011;2246;42.664;23.278;2023-06-24T10:34:38;11.77;;;9.23;;
4466;SDS011;2246;42.664;23.278;2023-06-24T10:42:25;12.50;;;8.05;;
4466;SDS011;2246;42.664;23.278;2023-06-24T10:44:52;11.27;;;7.75;;
4466;SDS011;2246;42.664;23.278;2023-06-24T10:47:19;10.65;;;7.53;;
4466;SDS011;2246;42.664;23.278;2023-06-24T10:49:45;11.43;;;8.13;;
4466;SDS011;2246;42.664;23.278;2023-06-24T10:52:12;12.13;;;8.43;;
4466;SDS011;2246;42.664;23.278;2023-06-24T10:54:38;11.73;;;8.53;;
4466;SDS011;2246;42.664;23.278;2023-06-24T10:57:05;11.02;;;7.85;;
4466;SDS011;2246;42.664;23.278;2023-06-24T11:01:58;11.95;;;7.57;;
4466;SDS011;2246;42.664;23.278;2023-06-24T11:04:24;14.27;;;7.32;;
4466;SDS011;2246;42.664;23.278;2023-06-24T11:06:58;10.27;;;7.50;;
4466;SDS011;2246;42.664;23.278;2023-06-24T11:09:24;14.27;;;7.93;;
4466;SDS011;2246;42.664;23.278;2023-06-24T11:11:50;9.20;;;7.50;;
4466;SDS011;2246;42.664;23.278;2023-06-24T11:14:17;12.88;;;8.15;;
4466;SDS011;2246;42.664;23.278;2023-06-24T11:16:45;11.27;;;7.10;;
4466;SDS011;2246;42.664;23.278;2023-06-24T11:19:11;15.60;;;7.10;;
4466;SDS011;2246;42.664;23.278;2023-06-24T11:21:37;10.07;;;7.05;;
4466;SDS011;2246;42.664;23.278;2023-06-24T11:24:03;9.43;;;7.18;;
4466;SDS011;2246;42.664;23.278;2023-06-24T11:26:29;10.98;;;7.20;;
4466;SDS011;2246;42.664;23.278;2023-06-24T11:28:55;10.50;;;7.20;;
4466;SDS011;2246;42.664;23.278;2023-06-24T11:31:25;9.65;;;7.15;;
4466;SDS011;2246;42.664;23.278;2023-06-24T11:33:51;13.35;;;7.80;;
4466;SDS011;2246;42.664;23.278;2023-06-24T11:36:20;9.27;;;6.88;;
4466;SDS011;2246;42.664;23.278;2023-06-24T11:38:46;13.52;;;7.63;;
4466;SDS011;2246;42.664;23.278;2023-06-24T11:41:12;14.82;;;7.93;;
4466;SDS011;2246;42.664;23.278;2023-06-24T11:43:45;12.57;;;7.25;;
4466;SDS011;2246;42.664;23.278;2023-06-24T11:46:24;10.52;;;7.85;;
4466;SDS011;2246;42.664;23.278;2023-06-24T11:48:50;10.18;;;7.57;;
4466;SDS011;2246;42.664;23.278;2023-06-24T11:51:16;10.80;;;7.78;;
4466;SDS011;2246;42.664;23.278;2023-06-24T11:53:43;13.48;;;7.05;;
4466;SDS011;2246;42.664;23.278;2023-06-24T11:56:11;9.25;;;6.90;;
4466;SDS011;2246;42.664;23.278;2023-06-24T11:58:38;11.40;;;6.60;;
4466;SDS011;2246;42.664;23.278;2023-06-24T12:01:07;9.02;;;7.03;;
4466;SDS011;2246;42.664;23.278;2023-06-24T12:03:33;11.38;;;6.88;;
4466;SDS011;2246;42.664;23.278;2023-06-24T12:06:00;9.03;;;6.70;;
4466;SDS011;2246;42.664;23.278;2023-06-24T12:08:26;14.73;;;6.60;;
4466;SDS011;2246;42.664;23.278;2023-06-24T12:10:52;9.57;;;6.47;;
4466;SDS011;2246;42.664;23.278;2023-06-24T12:13:18;10.55;;;6.03;;
4466;SDS011;2246;42.664;23.278;2023-06-24T12:15:44;8.70;;;6.35;;
4466;SDS011;2246;42.664;23.278;2023-06-24T12:18:11;10.30;;;6.18;;
4466;SDS011;2246;42.664;23.278;2023-06-24T12:20:39;9.63;;;6.60;;
4466;SDS011;2246;42.664;23.278;2023-06-24T12:23:05;9.63;;;6.32;;
4466;SDS011;2246;42.664;23.278;2023-06-24T12:25:31;9.82;;;6.50;;
4466;SDS011;2246;42.664;23.278;2023-06-24T12:27:57;9.20;;;6.30;;
4466;SDS011;2246;42.664;23.278;2023-06-24T12:30:24;10.75;;;6.43;;
4466;SDS011;2246;42.664;23.278;2023-06-24T12:32:50;9.50;;;6.80;;
4466;SDS011;2246;42.664;23.278;2023-06-24T12:35:17;13.93;;;7.53;;
4466;SDS011;2246;42.664;23.278;2023-06-24T12:37:43;9.43;;;6.72;;
4466;SDS011;2246;42.664;23.278;2023-06-24T12:40:10;9.27;;;6.88;;
4466;SDS011;2246;42.664;23.278;2023-06-24T12:42:36;11.70;;;6.73;;
4466;SDS011;2246;42.664;23.278;2023-06-24T12:45:02;14.05;;;8.98;;
4466;SDS011;2246;42.664;23.278;2023-06-24T12:47:28;14.23;;;7.43;;
4466;SDS011;2246;42.664;23.278;2023-06-24T12:49:54;8.90;;;6.28;;
4466;SDS011;2246;42.664;23.278;2023-06-24T12:52:20;14.07;;;6.57;;
4466;SDS011;2246;42.664;23.278;2023-06-24T12:54:46;8.02;;;6.25;;
4466;SDS011;2246;42.664;23.278;2023-06-24T12:57:14;7.15;;;5.97;;
4466;SDS011;2246;42.664;23.278;2023-06-24T12:59:40;10.30;;;7.18;;
4466;SDS011;2246;42.664;23.278;2023-06-24T13:02:06;8.87;;;6.67;;
4466;SDS011;2246;42.664;23.278;2023-06-24T13:04:32;12.23;;;7.78;;
4466;SDS011;2246;42.664;23.278;2023-06-24T13:06:58;16.90;;;10.70;;
4466;SDS011;2246;42.664;23.278;2023-06-24T13:09:24;13.25;;;8.60;;
4466;SDS011;2246;42.664;23.278;2023-06-24T13:11:50;12.82;;;7.30;;
4466;SDS011;2246;42.664;23.278;2023-06-24T13:14:16;10.48;;;8.18;;
4466;SDS011;2246;42.664;23.278;2023-06-24T13:16:42;15.15;;;7.47;;
4466;SDS011;2246;42.664;23.278;2023-06-24T13:19:08;8.93;;;7.10;;
4466;SDS011;2246;42.664;23.278;2023-06-24T13:21:34;18.75;;;8.25;;
4466;SDS011;2246;42.664;23.278;2023-06-24T13:24:00;21.30;;;8.45;;
4466;SDS011;2246;42.664;23.278;2023-06-24T13:26:26;13.25;;;8.15;;
4466;SDS011;2246;42.664;23.278;2023-06-24T13:28:52;19.05;;;8.60;;
4466;SDS011;2246;42.664;23.278;2023-06-24T13:31:19;13.93;;;8.43;;
4466;SDS011;2246;42.664;23.278;2023-06-24T13:33:45;18.85;;;8.00;;
4466;SDS011;2246;42.664;23.278;2023-06-24T13:36:27;15.35;;;8.30;;
4466;SDS011;2246;42.664;23.278;2023-06-24T13:38:54;13.98;;;7.38;;
4466;SDS011;2246;42.664;23.278;2023-06-24T13:41:20;15.63;;;7.07;;
4466;SDS011;2246;42.664;23.278;2023-06-24T13:43:46;21.30;;;6.75;;
4466;SDS011;2246;42.664;23.278;2023-06-24T13:46:12;18.70;;;6.22;;
4466;SDS011;2246;42.664;23.278;2023-06-24T13:48:38;16.63;;;6.32;;
4466;SDS011;2246;42.664;23.278;2023-06-24T13:51:04;12.82;;;5.47;;
4466;SDS011;2246;42.664;23.278;2023-06-24T13:53:31;16.23;;;5.68;;
4466;SDS011;2246;42.664;23.278;2023-06-24T13:55:57;27.48;;;6.65;;
4466;SDS011;2246;42.664;23.278;2023-06-24T13:58:23;15.00;;;6.68;;
4466;SDS011;2246;42.664;23.278;2023-06-24T14:00:49;20.35;;;6.10;;
4466;SDS011;2246;42.664;23.278;2023-06-24T14:03:15;29.77;;;7.55;;
4466;SDS011;2246;42.664;23.278;2023-06-24T14:05:41;17.58;;;7.85;;
4466;SDS011;2246;42.664;23.278;2023-06-24T14:08:07;20.58;;;10.82;;
4466;SDS011;2246;42.664;23.278;2023-06-24T14:10:33;23.40;;;6.22;;
4466;SDS011;2246;42.664;23.278;2023-06-24T14:13:00;15.00;;;5.90;;
4466;SDS011;2246;42.664;23.278;2023-06-24T14:15:26;11.45;;;6.25;;
4466;SDS011;2246;42.664;23.278;2023-06-24T14:17:52;15.05;;;5.85;;
4466;SDS011;2246;42.664;23.278;2023-06-24T14:20:18;16.35;;;6.93;;
4466;SDS011;2246;42.664;23.278;2023-06-24T14:22:44;12.45;;;5.65;;
4466;SDS011;2246;42.664;23.278;2023-06-24T14:25:10;11.00;;;6.25;;
4466;SDS011;2246;42.664;23.278;2023-06-24T14:27:36;21.13;;;6.40;;
4466;SDS011;2246;42.664;23.278;2023-06-24T14:30:03;22.85;;;7.13;;
4466;SDS011;2246;42.664;23.278;2023-06-24T14:32:29;20.33;;;6.30;;
4466;SDS011;2246;42.664;23.278;2023-06-24T14:34:55;22.00;;;6.47;;
4466;SDS011;2246;42.664;23.278;2023-06-24T14:37:21;14.50;;;5.90;;
4466;SDS011;2246;42.664;23.278;2023-06-24T14:39:47;12.48;;;5.68;;
4466;SDS011;2246;42.664;23.278;2023-06-24T14:42:13;13.23;;;6.82;;
4466;SDS011;2246;42.664;23.278;2023-06-24T14:44:39;16.23;;;8.00;;
4466;SDS011;2246;42.664;23.278;2023-06-24T14:47:05;22.08;;;6.28;;
4466;SDS011;2246;42.664;23.278;2023-06-24T14:49:31;15.80;;;6.85;;
4466;SDS011;2246;42.664;23.278;2023-06-24T14:51:57;21.08;;;9.70;;
4466;SDS011;2246;42.664;23.278;2023-06-24T14:54:23;21.25;;;8.93;;
4466;SDS011;2246;42.664;23.278;2023-06-24T14:56:49;18.85;;;6.90;;
4466;SDS011;2246;42.664;23.278;2023-06-24T14:59:15;17.48;;;6.95;;
4466;SDS011;2246;42.664;23.278;2023-06-24T15:01:41;16.70;;;6.75;;
4466;SDS011;2246;42.664;23.278;2023-06-24T15:04:08;18.00;;;7.43;;